Meteo Giornale » Osservazioni meteo Gran Bretagna » Pembrey Sands

ore: 14:50 - Osservazioni Meteo Pembrey Sands
Lat. 51° 43' N Lon. 4° 22' W Alt. 3 metri s.l.m.

nuvoloso Europe/London

14 °C

Nuvoloso

Temp. 24 Ore

13 °C

16 °C

Ovest

16.7 Km/h

Dew point 12 °C

Umidità 87 %

Visibilità  10 Km

Il sole sorge alle ore 07:12

Il sole tramonta alle ore 19:03

Data e Ora Cielo e Fenomeni T °C DP °C Um. % Pres. hPa Vis. km Vento km/h
Oggi h: 14:50 nuvoloso Nuvoloso 14 12 87 1009 10 O 16.7
Oggi h: 13:50 coperto_pioggia Pioggia 13 12 93 1010 10 O/SO 13
Oggi h: 12:50 coperto_pioggia Pioggia 13 12 93 1010 5 O 29.6
Oggi h: 11:50 coperto_pioggia Pioggia 13 12 93 1011 4 S/SO 27.8
Oggi h: 10:50 coperto_pioggia Pioggia 14 13 93 1011 10 S/SO 33.3
Oggi h: 09:50 coperto_pioggia Pioggia 13 12 93 1012 6 SO 46.3
Oggi h: 08:50 molto_nuvoloso Molto Nuvoloso 13 12 93 1012 2 SO 42.6
Oggi h: 07:50 molto_nuvoloso Molto Nuvoloso 14 12 87 1012 5 S/SO 48.1
Oggi h: 06:50 molto_nuvoloso Molto Nuvoloso 15 11 76 1013 10 S/SO 46.3
Oggi h: 05:50 molto_nuvoloso Molto Nuvoloso 13 11 87 1013 8 O/SO 27.8
Oggi h: 03:50 molto_nuvoloso Molto Nuvoloso 13 11 87 1014 9 SO 35.2
Oggi h: 02:50 molto_nuvoloso Molto Nuvoloso 15 10 72 1014 10 SO 46.3
Oggi h: 01:50 molto_nuvoloso Molto Nuvoloso 15 10 72 1015 10 O/SO 42.6
Oggi h: 00:50 nuvoloso Nuvoloso 15 9 67 1015 10 O/SO 46.3
Ieri h: 23:50 nuvoloso Nuvoloso 13 9 76 1015 10 O 44.4
Ieri h: 22:50 nuvoloso Nuvoloso 15 10 72 1015 10 O/SO 40.7
Ieri h: 20:50 nuvoloso Nuvoloso 15 9 67 1014 10 O 46.3
Ieri h: 19:50 poco_nuvoloso Poco Nuvoloso 15 9 67 1014 10 O 48.1
Ieri h: 18:50 nuvoloso Nuvoloso 14 10 76 1013 10 O 31.5
Ieri h: 17:50 molto_nuvoloso Molto Nuvoloso 14 10 76 1013 5 O/SO 33.3
Ieri h: 16:50 molto_nuvoloso Molto Nuvoloso 15 9 67 1012 10 O 46.3
Ieri h: 15:50 nuvoloso Nuvoloso 16 10 67 1011 10 O/SO 44.4